createdAt,value
2022-11-19T00:02:42.424Z,7.33
2022-11-19T00:07:34.005Z,6.77
2022-11-19T00:12:44.347Z,7.07
2022-11-19T00:17:35.942Z,8.33
2022-11-19T00:22:27.636Z,7.27
2022-11-19T00:27:19.236Z,6.53
2022-11-19T00:32:10.851Z,10.97
2022-11-19T00:37:02.493Z,5.73
2022-11-19T00:41:54.034Z,7.43
2022-11-19T00:46:45.741Z,6.97
2022-11-19T00:51:37.920Z,8.93
2022-11-19T00:56:29.465Z,6.80
2022-11-19T01:01:23.591Z,6.47
2022-11-19T01:06:19.276Z,7.10
2022-11-19T01:11:17.559Z,4.73
2022-11-19T01:16:27.524Z,5.03
2022-11-19T01:21:21.011Z,6.50
2022-11-19T01:26:13.233Z,7.30
2022-11-19T01:31:10.868Z,5.87
2022-11-19T01:36:05.374Z,7.07
2022-11-19T01:40:58.116Z,6.43
2022-11-19T01:45:49.904Z,7.17
2022-11-19T01:51:04.750Z,6.93
2022-11-19T01:56:03.709Z,8.80
2022-11-19T02:00:55.324Z,9.37
2022-11-19T02:05:47.370Z,7.33
2022-11-19T02:11:04.683Z,6.30
2022-11-19T02:16:14.265Z,9.63
2022-11-19T02:21:11.527Z,6.23
2022-11-19T02:26:21.721Z,7.27
2022-11-19T02:31:39.661Z,5.97
2022-11-19T02:36:56.060Z,5.60
2022-11-19T02:41:47.582Z,6.30
2022-11-19T02:46:39.702Z,5.73
2022-11-19T02:51:31.385Z,5.30
2022-11-19T02:56:50.048Z,6.10
2022-11-19T03:02:04.292Z,6.73
2022-11-19T03:07:02.275Z,7.27
2022-11-19T03:12:07.937Z,7.17
2022-11-19T03:17:15.913Z,6.80
2022-11-19T03:22:19.325Z,5.40
2022-11-19T03:27:26.472Z,3.13
2022-11-19T03:32:22.277Z,2.10
2022-11-19T03:37:17.514Z,4.77
2022-11-19T03:42:12.806Z,1.80
2022-11-19T03:47:13.522Z,1.40
2022-11-19T03:52:10.707Z,2.20
2022-11-19T03:57:05.696Z,2.73
2022-11-19T04:02:01.783Z,1.03
2022-11-19T04:06:54.282Z,1.47
2022-11-19T04:16:39.386Z,2.67
2022-11-19T04:21:31.074Z,0.80
2022-11-19T04:26:22.696Z,0.80
2022-11-19T04:31:17.879Z,1.07
2022-11-19T04:36:09.968Z,1.00
2022-11-19T04:41:01.500Z,0.93
2022-11-19T04:45:53.047Z,1.20
2022-11-19T04:50:44.692Z,1.17
2022-11-19T04:55:36.265Z,1.20
2022-11-19T05:00:27.840Z,2.10
2022-11-19T05:05:19.485Z,1.93
2022-11-19T05:10:11.218Z,1.70
2022-11-19T05:15:03.317Z,1.97
2022-11-19T05:19:54.857Z,1.90
2022-11-19T05:24:46.399Z,2.37
2022-11-19T05:29:37.974Z,2.60
2022-11-19T05:34:29.532Z,3.07
2022-11-19T05:39:22.361Z,3.43
2022-11-19T05:44:14.156Z,3.57
2022-11-19T05:49:05.921Z,4.53
2022-11-19T05:53:57.616Z,5.00
2022-11-19T05:58:49.310Z,5.33
2022-11-19T06:03:41.524Z,6.60
2022-11-19T06:08:33.649Z,6.00
2022-11-19T06:13:25.158Z,5.20
2022-11-19T06:18:16.813Z,5.93
2022-11-19T06:23:08.351Z,6.37
2022-11-19T06:27:59.883Z,7.07
2022-11-19T06:32:51.439Z,7.07
2022-11-19T06:37:43.018Z,8.10
2022-11-19T06:42:37.470Z,8.53
2022-11-19T06:47:33.583Z,8.93
2022-11-19T06:52:25.779Z,8.90
2022-11-19T06:57:17.755Z,9.93
2022-11-19T07:02:11.301Z,10.67
2022-11-19T07:07:03.633Z,10.33
2022-11-19T07:11:55.455Z,10.13
2022-11-19T07:16:46.993Z,10.10
2022-11-19T07:21:38.691Z,11.53
2022-11-19T07:26:32.587Z,11.47
2022-11-19T07:31:24.945Z,12.10
2022-11-19T07:36:18.573Z,11.90
2022-11-19T07:41:29.224Z,12.70
2022-11-19T07:46:21.035Z,13.43
2022-11-19T07:51:13.004Z,13.37
2022-11-19T07:56:04.703Z,12.63
2022-11-19T08:00:56.311Z,13.53
2022-11-19T08:05:47.926Z,13.00
2022-11-19T08:10:39.481Z,14.03
2022-11-19T08:15:33.228Z,14.00
2022-11-19T08:20:25.065Z,11.63
2022-11-19T08:25:16.953Z,13.43
2022-11-19T08:30:09.542Z,12.37
2022-11-19T08:35:01.181Z,12.80
2022-11-19T08:39:52.980Z,14.27
2022-11-19T08:44:44.525Z,13.60
2022-11-19T08:49:36.202Z,12.43
2022-11-19T08:54:27.794Z,13.13
2022-11-19T08:59:23.907Z,11.67
2022-11-19T09:04:15.773Z,12.47
2022-11-19T09:09:07.372Z,10.30
2022-11-19T09:13:58.998Z,11.80
2022-11-19T09:18:50.536Z,12.20
2022-11-19T09:23:42.643Z,10.50
2022-11-19T09:28:35.490Z,10.77
2022-11-19T09:33:28.943Z,12.30
2022-11-19T09:38:20.951Z,11.27
2022-11-19T09:43:41.154Z,9.70
2022-11-19T09:48:41.988Z,9.80
2022-11-19T09:53:40.784Z,9.90
2022-11-19T09:58:45.189Z,10.03
2022-11-19T10:03:40.752Z,10.00
2022-11-19T10:08:44.422Z,9.70
2022-11-19T10:13:45.761Z,9.47
2022-11-19T10:19:00.811Z,10.00
2022-11-19T10:35:07.793Z,9.10
2022-11-19T10:40:06.399Z,9.03
2022-11-19T10:45:03.347Z,9.70
2022-11-19T10:49:55.714Z,9.17
2022-11-19T10:54:50.866Z,8.73
2022-11-19T10:59:43.087Z,9.97
2022-11-19T11:04:34.839Z,10.07
2022-11-19T11:09:43.440Z,10.33
2022-11-19T11:14:53.425Z,8.83
2022-11-19T11:19:45.209Z,10.70
2022-11-19T11:24:38.824Z,10.37
2022-11-19T11:29:30.504Z,10.03
2022-11-19T11:34:32.220Z,10.70
2022-11-19T11:39:30.121Z,9.00
2022-11-19T11:44:24.949Z,10.53
2022-11-19T11:49:30.979Z,10.10
2022-11-19T11:54:22.555Z,8.43
2022-11-19T11:59:21.695Z,8.83
2022-11-19T12:04:13.449Z,9.23
2022-11-19T12:09:10.916Z,9.30
2022-11-19T12:14:11.233Z,8.57
2022-11-19T12:19:33.156Z,8.50
2022-11-19T12:24:55.523Z,8.73
2022-11-19T12:29:53.575Z,7.93
2022-11-19T12:35:12.557Z,8.33
2022-11-19T12:40:18.822Z,9.27
2022-11-19T12:45:25.825Z,11.00
2022-11-19T12:50:33.618Z,11.00
2022-11-19T12:55:51.902Z,12.43
2022-11-19T13:00:53.799Z,8.57
2022-11-19T13:05:58.210Z,10.70
2022-11-19T13:11:04.767Z,9.87
2022-11-19T13:16:11.105Z,10.13
2022-11-19T13:21:41.773Z,9.43
2022-11-19T13:26:35.577Z,9.33
2022-11-19T13:31:38.621Z,8.50
2022-11-19T13:36:37.831Z,9.23
2022-11-19T13:41:34.311Z,9.40
2022-11-19T13:46:32.297Z,9.90
2022-11-19T13:51:32.800Z,9.40
2022-11-19T13:56:47.417Z,10.17
2022-11-19T14:01:43.542Z,10.37
2022-11-19T14:06:38.316Z,10.70
2022-11-19T14:11:54.361Z,8.70
2022-11-19T14:17:13.322Z,9.53
2022-11-19T14:22:49.911Z,11.20
2022-11-19T14:27:42.018Z,9.57
2022-11-19T14:32:35.916Z,10.00
2022-11-19T14:37:36.591Z,9.60
2022-11-19T14:42:28.162Z,9.63
2022-11-19T14:47:22.483Z,10.20
2022-11-19T14:52:26.973Z,9.30
2022-11-19T14:57:28.724Z,9.30
2022-11-19T15:02:25.120Z,9.90
2022-11-19T15:07:37.678Z,9.30
2022-11-19T15:12:44.931Z,8.63
2022-11-19T15:17:36.759Z,9.13
2022-11-19T15:22:37.261Z,8.60
2022-11-19T15:28:00.461Z,9.80
2022-11-19T15:32:56.822Z,9.10
2022-11-19T15:37:50.911Z,9.47
2022-11-19T15:42:50.209Z,11.77
2022-11-19T15:48:07.734Z,9.07
2022-11-19T15:53:14.785Z,11.20
2022-11-19T15:58:14.605Z,9.97
2022-11-19T16:03:10.456Z,9.17
2022-11-19T16:08:08.916Z,8.83
2022-11-19T16:13:38.840Z,9.47
2022-11-19T16:18:30.445Z,10.33
2022-11-19T16:23:24.821Z,12.70
2022-11-19T16:28:24.797Z,11.37
2022-11-19T16:33:21.167Z,9.70
2022-11-19T16:38:43.146Z,10.43
2022-11-19T16:43:35.727Z,12.17
2022-11-19T16:48:53.943Z,10.07
2022-11-19T16:53:46.704Z,10.27
2022-11-19T16:58:38.517Z,11.73
2022-11-19T17:03:36.290Z,10.33
2022-11-19T17:12:56.947Z,12.80
2022-11-19T17:17:50.796Z,10.83
2022-11-19T17:22:42.666Z,20.75
2022-11-19T17:27:37.788Z,13.53
2022-11-19T17:32:34.904Z,10.73
2022-11-19T17:37:26.470Z,10.87
2022-11-19T17:42:36.677Z,14.10
2022-11-19T17:47:28.386Z,12.40
2022-11-19T17:52:24.932Z,13.03
2022-11-19T17:57:16.644Z,11.10
2022-11-19T18:02:16.796Z,12.10
2022-11-19T18:07:08.459Z,14.43
2022-11-19T18:12:00.132Z,12.67
2022-11-19T18:16:51.783Z,11.17
2022-11-19T18:21:45.523Z,11.77
2022-11-19T18:26:37.054Z,13.90
2022-11-19T18:31:28.925Z,13.47
2022-11-19T18:36:21.996Z,11.07
2022-11-19T18:41:15.756Z,10.70
2022-11-19T18:46:07.471Z,14.93
2022-11-19T18:50:59.029Z,13.53
2022-11-19T18:55:50.886Z,11.90
2022-11-19T19:00:43.011Z,11.03
2022-11-19T19:05:34.565Z,12.07
2022-11-19T19:10:27.483Z,11.60
2022-11-19T19:15:19.067Z,12.10
2022-11-19T19:20:11.226Z,11.40
2022-11-19T19:25:05.027Z,9.80
2022-11-19T19:29:56.896Z,11.27
2022-11-19T19:34:48.537Z,12.57
2022-11-19T19:39:40.164Z,11.90
2022-11-19T19:44:31.923Z,12.60
2022-11-19T19:49:23.995Z,11.93
2022-11-19T19:54:16.049Z,12.33
2022-11-19T19:59:07.644Z,12.53
2022-11-19T20:04:01.581Z,11.87
2022-11-19T20:08:53.143Z,11.07
2022-11-19T20:13:45.229Z,11.50
2022-11-19T20:18:38.297Z,17.63
2022-11-19T20:23:31.039Z,12.83
2022-11-19T20:28:22.717Z,14.20
2022-11-19T20:33:14.301Z,13.27
2022-11-19T20:38:05.946Z,12.07
2022-11-19T20:43:16.224Z,12.63
2022-11-19T20:48:07.788Z,12.33
2022-11-19T20:52:59.373Z,12.13
2022-11-19T20:57:50.962Z,12.10
2022-11-19T21:02:43.248Z,11.30
2022-11-19T21:07:35.144Z,13.53
2022-11-19T21:12:26.810Z,13.37
2022-11-19T21:17:20.086Z,13.40
2022-11-19T21:22:11.814Z,14.43
2022-11-19T21:27:03.430Z,14.57
2022-11-19T21:31:55.559Z,12.77
2022-11-19T21:36:48.321Z,12.23
2022-11-19T21:41:40.929Z,19.37
2022-11-19T21:46:33.346Z,33.97
2022-11-19T21:51:25.593Z,13.80
2022-11-19T21:56:17.240Z,16.13
2022-11-19T22:01:12.035Z,15.27
2022-11-19T22:06:06.443Z,17.13
2022-11-19T22:10:58.540Z,25.50
2022-11-19T22:15:50.712Z,16.30
2022-11-19T22:20:43.301Z,15.20
2022-11-19T22:25:35.222Z,15.63
2022-11-19T22:30:27.721Z,15.13
2022-11-19T22:35:19.312Z,14.63
2022-11-19T22:40:12.585Z,13.77
2022-11-19T22:45:04.738Z,14.30
2022-11-19T22:49:56.412Z,16.43
2022-11-19T22:54:48.012Z,13.67
2022-11-19T22:59:40.236Z,17.13
2022-11-19T23:04:31.817Z,14.43
2022-11-19T23:09:23.619Z,15.63
2022-11-19T23:14:17.034Z,14.77
2022-11-19T23:19:11.073Z,16.30
2022-11-19T23:24:03.473Z,17.67
2022-11-19T23:28:55.817Z,16.87
2022-11-19T23:33:48.519Z,14.83
2022-11-19T23:38:41.295Z,18.07
2022-11-19T23:43:33.753Z,16.70
2022-11-19T23:48:25.293Z,16.33
2022-11-19T23:53:17.137Z,14.87
2022-11-19T23:58:08.722Z,14.67
